CheckWX is a tool to help pilots better visualize weather data.  It is not intended as a substitute for an official pre-flight weather briefing.

05:22:45 UTC

KBDR METAR
Igor I Sikorsky Memorial Airport
Bridgeport, Connecticut, USA
Current

31 mins ago

KBDR 200452Z AUTO 35007KT 10SM CLR M03/M15 A3059 RMK AO2 SLP359 T10331150 400171061
Observed
Feb-20 @ 04:52 UTC
Wind
  • 350° at 7 KTS
Visibility
16,093 meters
Flight Rules
VFR
Cloud Levels
  • Clear skies
Temperature
-3°C / 27°F
Dewpoint
-15°C / 5°F
Humidity
39%
Altimeter
30.59" Hg
Pressure
1035.9 hPa
Previous

2 hours ago

KBDR 200352Z AUTO 35006KT 10SM CLR M03/M14 A3060 RMK AO2 SLP360 T10281144
Observed
Feb-20 @ 03:52 UTC
Wind
  • 350° at 6 KTS
Visibility
16,093 meters
Flight Rules
VFR
Cloud Levels
  • Clear skies
Temperature
-3°C / 27°F
Dewpoint
-14°C / 7°F
Humidity
43%
Altimeter
30.6" Hg
Pressure
1036 hPa
Previous

3 hours ago

KBDR 200252Z 35007KT 10SM CLR M02/M15 A3060 RMK AO2 SLP362 T10221150 51013
Observed
Feb-20 @ 02:52 UTC
Wind
  • 350° at 7 KTS
Visibility
16,093 meters
Flight Rules
VFR
Cloud Levels
  • Clear skies
Temperature
-2°C / 28°F
Dewpoint
-15°C / 5°F
Humidity
37%
Altimeter
30.6" Hg
Pressure
1036.2 hPa